sensor_id;sensor_type;location;lat;lon;timestamp;P1;durP1;ratioP1;P2;durP2;ratioP2
72053;SDS011;59918;51.280;7.950;2023-08-31T00:01:46;39.05;;;17.13;;
72053;SDS011;59918;51.280;7.950;2023-08-31T00:04:11;34.20;;;16.23;;
72053;SDS011;59918;51.280;7.950;2023-08-31T00:06:36;39.90;;;16.60;;
72053;SDS011;59918;51.280;7.950;2023-08-31T00:09:02;36.88;;;16.02;;
72053;SDS011;59918;51.280;7.950;2023-08-31T00:11:27;35.78;;;16.02;;
72053;SDS011;59918;51.280;7.950;2023-08-31T00:13:52;35.38;;;15.82;;
72053;SDS011;59918;51.280;7.950;2023-08-31T00:16:19;37.88;;;16.48;;
72053;SDS011;59918;51.280;7.950;2023-08-31T00:18:49;38.00;;;15.70;;
72053;SDS011;59918;51.280;7.950;2023-08-31T00:21:14;34.83;;;15.90;;
72053;SDS011;59918;51.280;7.950;2023-08-31T00:23:39;34.60;;;15.80;;
72053;SDS011;59918;51.280;7.950;2023-08-31T00:26:05;37.15;;;15.07;;
72053;SDS011;59918;51.280;7.950;2023-08-31T00:28:30;38.33;;;15.05;;
72053;SDS011;59918;51.280;7.950;2023-08-31T00:30:55;35.15;;;14.75;;
72053;SDS011;59918;51.280;7.950;2023-08-31T00:33:20;26.63;;;14.57;;
72053;SDS011;59918;51.280;7.950;2023-08-31T00:35:46;27.90;;;14.18;;
72053;SDS011;59918;51.280;7.950;2023-08-31T00:38:11;35.95;;;14.70;;
72053;SDS011;59918;51.280;7.950;2023-08-31T00:40:40;28.05;;;13.60;;
72053;SDS011;59918;51.280;7.950;2023-08-31T00:43:09;32.30;;;13.35;;
72053;SDS011;59918;51.280;7.950;2023-08-31T00:45:34;26.23;;;12.18;;
72053;SDS011;59918;51.280;7.950;2023-08-31T00:47:59;19.30;;;11.60;;
72053;SDS011;59918;51.280;7.950;2023-08-31T00:50:25;20.23;;;11.32;;
72053;SDS011;59918;51.280;7.950;2023-08-31T00:52:51;19.65;;;11.00;;
72053;SDS011;59918;51.280;7.950;2023-08-31T00:55:16;23.38;;;11.40;;
72053;SDS011;59918;51.280;7.950;2023-08-31T00:57:41;21.17;;;11.80;;
72053;SDS011;59918;51.280;7.950;2023-08-31T01:00:07;21.38;;;10.75;;
72053;SDS011;59918;51.280;7.950;2023-08-31T01:05:32;19.17;;;10.43;;
72053;SDS011;59918;51.280;7.950;2023-08-31T01:13:44;17.25;;;9.88;;
72053;SDS011;59918;51.280;7.950;2023-08-31T01:16:16;18.05;;;9.35;;
72053;SDS011;59918;51.280;7.950;2023-08-31T01:18:42;16.75;;;9.60;;
72053;SDS011;59918;51.280;7.950;2023-08-31T01:23:55;22.63;;;9.73;;
72053;SDS011;59918;51.280;7.950;2023-08-31T01:26:22;19.27;;;10.20;;
72053;SDS011;59918;51.280;7.950;2023-08-31T01:28:47;13.93;;;9.35;;
72053;SDS011;59918;51.280;7.950;2023-08-31T01:31:13;19.23;;;9.95;;
72053;SDS011;59918;51.280;7.950;2023-08-31T01:33:39;18.42;;;9.05;;
72053;SDS011;59918;51.280;7.950;2023-08-31T01:36:04;13.23;;;9.45;;
72053;SDS011;59918;51.280;7.950;2023-08-31T01:38:37;19.17;;;9.32;;
72053;SDS011;59918;51.280;7.950;2023-08-31T01:41:06;18.25;;;9.18;;
72053;SDS011;59918;51.280;7.950;2023-08-31T01:43:34;16.63;;;9.13;;
72053;SDS011;59918;51.280;7.950;2023-08-31T01:46:00;17.25;;;8.63;;
72053;SDS011;59918;51.280;7.950;2023-08-31T01:48:26;16.77;;;9.18;;
72053;SDS011;59918;51.280;7.950;2023-08-31T01:50:51;17.02;;;9.65;;
72053;SDS011;59918;51.280;7.950;2023-08-31T01:53:17;14.93;;;9.15;;
72053;SDS011;59918;51.280;7.950;2023-08-31T01:55:42;17.80;;;9.00;;
72053;SDS011;59918;51.280;7.950;2023-08-31T01:58:07;13.48;;;9.27;;
72053;SDS011;59918;51.280;7.950;2023-08-31T02:00:32;15.07;;;9.15;;
72053;SDS011;59918;51.280;7.950;2023-08-31T02:02:58;15.55;;;9.10;;
72053;SDS011;59918;51.280;7.950;2023-08-31T02:05:23;17.63;;;9.85;;
72053;SDS011;59918;51.280;7.950;2023-08-31T02:07:48;14.80;;;8.85;;
72053;SDS011;59918;51.280;7.950;2023-08-31T02:10:14;21.70;;;9.75;;
72053;SDS011;59918;51.280;7.950;2023-08-31T02:12:39;15.57;;;9.50;;
72053;SDS011;59918;51.280;7.950;2023-08-31T02:15:04;16.45;;;10.55;;
72053;SDS011;59918;51.280;7.950;2023-08-31T02:17:30;17.48;;;11.02;;
72053;SDS011;59918;51.280;7.950;2023-08-31T02:19:55;18.63;;;10.57;;
72053;SDS011;59918;51.280;7.950;2023-08-31T02:22:20;19.38;;;11.13;;
72053;SDS011;59918;51.280;7.950;2023-08-31T02:24:46;20.10;;;12.52;;
72053;SDS011;59918;51.280;7.950;2023-08-31T02:27:11;20.52;;;12.65;;
72053;SDS011;59918;51.280;7.950;2023-08-31T02:29:36;21.27;;;14.40;;
72053;SDS011;59918;51.280;7.950;2023-08-31T02:32:04;21.75;;;14.70;;
72053;SDS011;59918;51.280;7.950;2023-08-31T02:34:30;23.05;;;14.90;;
72053;SDS011;59918;51.280;7.950;2023-08-31T02:36:55;26.27;;;15.60;;
72053;SDS011;59918;51.280;7.950;2023-08-31T02:39:20;27.95;;;16.48;;
72053;SDS011;59918;51.280;7.950;2023-08-31T02:41:46;30.75;;;18.45;;
72053;SDS011;59918;51.280;7.950;2023-08-31T02:44:11;26.65;;;17.48;;
72053;SDS011;59918;51.280;7.950;2023-08-31T02:46:36;31.08;;;17.20;;
72053;SDS011;59918;51.280;7.950;2023-08-31T02:49:01;31.50;;;17.55;;
72053;SDS011;59918;51.280;7.950;2023-08-31T02:51:27;28.83;;;18.98;;
72053;SDS011;59918;51.280;7.950;2023-08-31T02:53:52;32.83;;;19.77;;
72053;SDS011;59918;51.280;7.950;2023-08-31T02:56:17;35.20;;;19.50;;
72053;SDS011;59918;51.280;7.950;2023-08-31T02:58:42;33.25;;;18.60;;
72053;SDS011;59918;51.280;7.950;2023-08-31T03:01:11;35.17;;;19.77;;
72053;SDS011;59918;51.280;7.950;2023-08-31T03:03:38;29.33;;;19.73;;
72053;SDS011;59918;51.280;7.950;2023-08-31T03:06:07;34.00;;;20.30;;
72053;SDS011;59918;51.280;7.950;2023-08-31T03:08:33;31.25;;;19.83;;
72053;SDS011;59918;51.280;7.950;2023-08-31T03:10:58;36.38;;;20.38;;
72053;SDS011;59918;51.280;7.950;2023-08-31T03:13:23;32.90;;;18.70;;
72053;SDS011;59918;51.280;7.950;2023-08-31T03:15:48;31.38;;;18.35;;
72053;SDS011;59918;51.280;7.950;2023-08-31T03:18:13;25.30;;;18.48;;
72053;SDS011;59918;51.280;7.950;2023-08-31T03:20:39;29.02;;;19.70;;
72053;SDS011;59918;51.280;7.950;2023-08-31T03:23:04;25.33;;;18.42;;
72053;SDS011;59918;51.280;7.950;2023-08-31T03:25:29;36.72;;;19.98;;
72053;SDS011;59918;51.280;7.950;2023-08-31T03:27:54;29.77;;;17.88;;
72053;SDS011;59918;51.280;7.950;2023-08-31T03:30:20;24.63;;;17.08;;
72053;SDS011;59918;51.280;7.950;2023-08-31T03:32:45;27.38;;;17.70;;
72053;SDS011;59918;51.280;7.950;2023-08-31T03:35:10;25.05;;;17.02;;
72053;SDS011;59918;51.280;7.950;2023-08-31T03:37:35;27.40;;;16.75;;
72053;SDS011;59918;51.280;7.950;2023-08-31T03:40:01;23.80;;;16.02;;
72053;SDS011;59918;51.280;7.950;2023-08-31T03:42:26;18.38;;;13.45;;
72053;SDS011;59918;51.280;7.950;2023-08-31T03:44:51;16.85;;;13.13;;
72053;SDS011;59918;51.280;7.950;2023-08-31T03:47:16;20.40;;;13.07;;
72053;SDS011;59918;51.280;7.950;2023-08-31T03:49:42;18.13;;;12.15;;
72053;SDS011;59918;51.280;7.950;2023-08-31T03:52:07;17.23;;;12.50;;
72053;SDS011;59918;51.280;7.950;2023-08-31T03:54:32;16.52;;;12.02;;
72053;SDS011;59918;51.280;7.950;2023-08-31T03:56:57;17.70;;;11.25;;
72053;SDS011;59918;51.280;7.950;2023-08-31T03:59:25;12.57;;;10.63;;
72053;SDS011;59918;51.280;7.950;2023-08-31T04:01:50;16.13;;;11.45;;
72053;SDS011;59918;51.280;7.950;2023-08-31T04:04:15;12.50;;;10.27;;
72053;SDS011;59918;51.280;7.950;2023-08-31T04:06:41;11.60;;;10.40;;
72053;SDS011;59918;51.280;7.950;2023-08-31T04:09:06;15.15;;;10.65;;
72053;SDS011;59918;51.280;7.950;2023-08-31T04:11:31;14.75;;;10.73;;
72053;SDS011;59918;51.280;7.950;2023-08-31T04:13:56;15.90;;;10.52;;
72053;SDS011;59918;51.280;7.950;2023-08-31T04:16:21;11.07;;;9.68;;
72053;SDS011;59918;51.280;7.950;2023-08-31T04:18:47;13.95;;;10.45;;
72053;SDS011;59918;51.280;7.950;2023-08-31T04:21:12;13.55;;;10.73;;
72053;SDS011;59918;51.280;7.950;2023-08-31T04:23:37;14.80;;;11.75;;
72053;SDS011;59918;51.280;7.950;2023-08-31T04:26:09;13.68;;;10.75;;
72053;SDS011;59918;51.280;7.950;2023-08-31T04:28:35;13.88;;;11.02;;
72053;SDS011;59918;51.280;7.950;2023-08-31T04:31:00;15.93;;;11.98;;
72053;SDS011;59918;51.280;7.950;2023-08-31T04:33:28;14.75;;;11.00;;
72053;SDS011;59918;51.280;7.950;2023-08-31T04:35:53;14.13;;;11.35;;
72053;SDS011;59918;51.280;7.950;2023-08-31T04:38:18;14.90;;;12.85;;
72053;SDS011;59918;51.280;7.950;2023-08-31T04:40:44;17.05;;;12.60;;
72053;SDS011;59918;51.280;7.950;2023-08-31T04:43:09;14.32;;;11.30;;
72053;SDS011;59918;51.280;7.950;2023-08-31T04:45:34;18.90;;;12.57;;
72053;SDS011;59918;51.280;7.950;2023-08-31T04:47:59;15.70;;;11.85;;
72053;SDS011;59918;51.280;7.950;2023-08-31T04:50:25;16.92;;;12.10;;
72053;SDS011;59918;51.280;7.950;2023-08-31T04:52:50;20.95;;;12.27;;
72053;SDS011;59918;51.280;7.950;2023-08-31T04:55:15;15.10;;;11.85;;
72053;SDS011;59918;51.280;7.950;2023-08-31T04:57:41;15.85;;;12.18;;
72053;SDS011;59918;51.280;7.950;2023-08-31T05:00:06;15.95;;;11.77;;
72053;SDS011;59918;51.280;7.950;2023-08-31T05:02:32;18.02;;;11.93;;
72053;SDS011;59918;51.280;7.950;2023-08-31T05:04:59;15.23;;;11.40;;
72053;SDS011;59918;51.280;7.950;2023-08-31T05:07:24;13.27;;;11.25;;
72053;SDS011;59918;51.280;7.950;2023-08-31T05:09:49;15.32;;;11.13;;
72053;SDS011;59918;51.280;7.950;2023-08-31T05:12:15;14.85;;;11.45;;
72053;SDS011;59918;51.280;7.950;2023-08-31T05:14:40;18.55;;;10.65;;
72053;SDS011;59918;51.280;7.950;2023-08-31T05:17:06;12.88;;;10.68;;
72053;SDS011;59918;51.280;7.950;2023-08-31T05:19:31;16.00;;;11.40;;
72053;SDS011;59918;51.280;7.950;2023-08-31T05:21:56;13.70;;;10.50;;
72053;SDS011;59918;51.280;7.950;2023-08-31T05:24:22;16.10;;;11.18;;
72053;SDS011;59918;51.280;7.950;2023-08-31T05:26:48;15.73;;;11.65;;
72053;SDS011;59918;51.280;7.950;2023-08-31T05:29:14;20.58;;;11.95;;
72053;SDS011;59918;51.280;7.950;2023-08-31T05:31:39;15.07;;;11.00;;
72053;SDS011;59918;51.280;7.950;2023-08-31T05:34:05;15.82;;;11.60;;
72053;SDS011;59918;51.280;7.950;2023-08-31T05:36:30;17.25;;;11.35;;
72053;SDS011;59918;51.280;7.950;2023-08-31T05:38:55;12.20;;;10.18;;
72053;SDS011;59918;51.280;7.950;2023-08-31T05:41:20;15.00;;;10.55;;
72053;SDS011;59918;51.280;7.950;2023-08-31T05:43:46;15.18;;;9.88;;
72053;SDS011;59918;51.280;7.950;2023-08-31T05:46:11;16.83;;;10.05;;
72053;SDS011;59918;51.280;7.950;2023-08-31T05:48:36;14.48;;;10.60;;
72053;SDS011;59918;51.280;7.950;2023-08-31T05:51:02;13.73;;;10.73;;
72053;SDS011;59918;51.280;7.950;2023-08-31T05:53:27;13.55;;;10.45;;
72053;SDS011;59918;51.280;7.950;2023-08-31T05:55:54;13.85;;;10.00;;
72053;SDS011;59918;51.280;7.950;2023-08-31T05:58:19;18.85;;;10.13;;
72053;SDS011;59918;51.280;7.950;2023-08-31T06:00:45;15.93;;;10.13;;
72053;SDS011;59918;51.280;7.950;2023-08-31T06:03:10;12.60;;;9.73;;
72053;SDS011;59918;51.280;7.950;2023-08-31T06:05:35;13.50;;;9.80;;
72053;SDS011;59918;51.280;7.950;2023-08-31T06:08:01;14.35;;;10.27;;
72053;SDS011;59918;51.280;7.950;2023-08-31T06:10:26;13.65;;;9.45;;
72053;SDS011;59918;51.280;7.950;2023-08-31T06:12:51;13.68;;;8.10;;
72053;SDS011;59918;51.280;7.950;2023-08-31T06:15:17;15.90;;;9.88;;
72053;SDS011;59918;51.280;7.950;2023-08-31T06:17:42;10.40;;;8.20;;
72053;SDS011;59918;51.280;7.950;2023-08-31T06:20:08;15.57;;;9.27;;
72053;SDS011;59918;51.280;7.950;2023-08-31T06:22:36;13.02;;;8.82;;
72053;SDS011;59918;51.280;7.950;2023-08-31T06:25:01;15.88;;;8.55;;
72053;SDS011;59918;51.280;7.950;2023-08-31T06:27:27;13.20;;;8.77;;
72053;SDS011;59918;51.280;7.950;2023-08-31T06:29:52;12.40;;;8.48;;
72053;SDS011;59918;51.280;7.950;2023-08-31T06:32:17;14.68;;;8.32;;
72053;SDS011;59918;51.280;7.950;2023-08-31T06:34:43;12.52;;;7.85;;
72053;SDS011;59918;51.280;7.950;2023-08-31T06:37:08;10.07;;;7.95;;
72053;SDS011;59918;51.280;7.950;2023-08-31T06:39:33;12.82;;;7.53;;
72053;SDS011;59918;51.280;7.950;2023-08-31T06:41:58;10.10;;;7.70;;
72053;SDS011;59918;51.280;7.950;2023-08-31T06:44:24;8.02;;;6.57;;
72053;SDS011;59918;51.280;7.950;2023-08-31T06:46:49;9.07;;;7.00;;
72053;SDS011;59918;51.280;7.950;2023-08-31T06:49:14;9.43;;;6.70;;
72053;SDS011;59918;51.280;7.950;2023-08-31T06:51:40;17.52;;;6.72;;
72053;SDS011;59918;51.280;7.950;2023-08-31T06:54:05;9.60;;;6.97;;
72053;SDS011;59918;51.280;7.950;2023-08-31T06:56:31;7.95;;;6.97;;
72053;SDS011;59918;51.280;7.950;2023-08-31T06:58:58;9.35;;;7.07;;
72053;SDS011;59918;51.280;7.950;2023-08-31T07:01:23;8.40;;;6.18;;
72053;SDS011;59918;51.280;7.950;2023-08-31T07:03:48;6.57;;;5.97;;
72053;SDS011;59918;51.280;7.950;2023-08-31T07:06:13;7.00;;;6.00;;
72053;SDS011;59918;51.280;7.950;2023-08-31T07:08:39;8.60;;;5.82;;
72053;SDS011;59918;51.280;7.950;2023-08-31T07:11:04;7.20;;;5.68;;
72053;SDS011;59918;51.280;7.950;2023-08-31T07:13:29;6.80;;;5.95;;
72053;SDS011;59918;51.280;7.950;2023-08-31T07:15:54;6.90;;;6.18;;
72053;SDS011;59918;51.280;7.950;2023-08-31T07:18:19;8.32;;;6.05;;
72053;SDS011;59918;51.280;7.950;2023-08-31T07:20:45;9.52;;;6.47;;
72053;SDS011;59918;51.280;7.950;2023-08-31T07:23:10;8.55;;;5.95;;
72053;SDS011;59918;51.280;7.950;2023-08-31T07:25:36;8.32;;;6.82;;
72053;SDS011;59918;51.280;7.950;2023-08-31T07:28:01;10.43;;;6.53;;
72053;SDS011;59918;51.280;7.950;2023-08-31T07:30:26;6.97;;;6.20;;
72053;SDS011;59918;51.280;7.950;2023-08-31T07:32:51;7.38;;;6.65;;
72053;SDS011;59918;51.280;7.950;2023-08-31T07:35:17;7.00;;;5.88;;
72053;SDS011;59918;51.280;7.950;2023-08-31T07:37:42;7.38;;;5.93;;
72053;SDS011;59918;51.280;7.950;2023-08-31T07:40:07;7.03;;;6.35;;
72053;SDS011;59918;51.280;7.950;2023-08-31T07:42:33;7.20;;;6.35;;
72053;SDS011;59918;51.280;7.950;2023-08-31T07:44:59;6.90;;;6.20;;
72053;SDS011;59918;51.280;7.950;2023-08-31T07:47:25;6.43;;;5.82;;
72053;SDS011;59918;51.280;7.950;2023-08-31T07:49:50;11.52;;;5.32;;
72053;SDS011;59918;51.280;7.950;2023-08-31T07:52:15;8.50;;;5.95;;
72053;SDS011;59918;51.280;7.950;2023-08-31T07:54:40;6.78;;;5.65;;
72053;SDS011;59918;51.280;7.950;2023-08-31T07:57:05;7.82;;;5.40;;
72053;SDS011;59918;51.280;7.950;2023-08-31T07:59:31;6.88;;;5.22;;
72053;SDS011;59918;51.280;7.950;2023-08-31T08:01:56;5.15;;;4.72;;
72053;SDS011;59918;51.280;7.950;2023-08-31T08:04:21;5.75;;;5.10;;
72053;SDS011;59918;51.280;7.950;2023-08-31T08:06:48;5.68;;;5.15;;
72053;SDS011;59918;51.280;7.950;2023-08-31T08:09:16;6.78;;;4.78;;
72053;SDS011;59918;51.280;7.950;2023-08-31T08:11:41;5.55;;;4.95;;
72053;SDS011;59918;51.280;7.950;2023-08-31T08:14:07;4.88;;;4.50;;
72053;SDS011;59918;51.280;7.950;2023-08-31T08:16:32;4.32;;;3.83;;
72053;SDS011;59918;51.280;7.950;2023-08-31T08:18:58;4.82;;;4.03;;
72053;SDS011;59918;51.280;7.950;2023-08-31T08:21:23;5.70;;;3.92;;
72053;SDS011;59918;51.280;7.950;2023-08-31T08:23:48;5.35;;;3.38;;
72053;SDS011;59918;51.280;7.950;2023-08-31T08:26:13;4.88;;;3.85;;
72053;SDS011;59918;51.280;7.950;2023-08-31T08:28:39;5.38;;;3.35;;
72053;SDS011;59918;51.280;7.950;2023-08-31T08:31:04;4.50;;;3.20;;
72053;SDS011;59918;51.280;7.950;2023-08-31T08:33:30;3.50;;;3.17;;
72053;SDS011;59918;51.280;7.950;2023-08-31T08:35:56;3.88;;;3.45;;
72053;SDS011;59918;51.280;7.950;2023-08-31T08:38:22;3.50;;;3.10;;
72053;SDS011;59918;51.280;7.950;2023-08-31T08:40:47;6.40;;;2.85;;
72053;SDS011;59918;51.280;7.950;2023-08-31T08:43:12;4.97;;;3.47;;
72053;SDS011;59918;51.280;7.950;2023-08-31T08:45:39;5.45;;;3.35;;
72053;SDS011;59918;51.280;7.950;2023-08-31T08:48:05;6.50;;;3.15;;
72053;SDS011;59918;51.280;7.950;2023-08-31T08:50:31;3.28;;;2.85;;
72053;SDS011;59918;51.280;7.950;2023-08-31T08:52:57;3.45;;;3.08;;
72053;SDS011;59918;51.280;7.950;2023-08-31T08:55:23;3.60;;;2.88;;
72053;SDS011;59918;51.280;7.950;2023-08-31T08:57:48;6.20;;;2.63;;
72053;SDS011;59918;51.280;7.950;2023-08-31T09:00:13;3.53;;;2.75;;
72053;SDS011;59918;51.280;7.950;2023-08-31T09:02:39;2.72;;;2.53;;
72053;SDS011;59918;51.280;7.950;2023-08-31T09:05:05;2.53;;;2.33;;
72053;SDS011;59918;51.280;7.950;2023-08-31T09:07:33;5.72;;;2.40;;
72053;SDS011;59918;51.280;7.950;2023-08-31T09:10:00;2.40;;;2.20;;
72053;SDS011;59918;51.280;7.950;2023-08-31T09:12:25;2.78;;;2.17;;
72053;SDS011;59918;51.280;7.950;2023-08-31T09:15:00;2.50;;;2.30;;
72053;SDS011;59918;51.280;7.950;2023-08-31T09:17:26;3.90;;;1.90;;
72053;SDS011;59918;51.280;7.950;2023-08-31T09:20:02;3.05;;;1.90;;
72053;SDS011;59918;51.280;7.950;2023-08-31T09:22:27;3.42;;;2.35;;
72053;SDS011;59918;51.280;7.950;2023-08-31T09:24:52;4.20;;;2.40;;
72053;SDS011;59918;51.280;7.950;2023-08-31T09:27:19;2.80;;;2.60;;
72053;SDS011;59918;51.280;7.950;2023-08-31T09:29:45;6.05;;;2.58;;
72053;SDS011;59918;51.280;7.950;2023-08-31T09:32:15;5.80;;;2.60;;
72053;SDS011;59918;51.280;7.950;2023-08-31T09:34:41;3.42;;;2.78;;
72053;SDS011;59918;51.280;7.950;2023-08-31T09:37:08;3.75;;;2.35;;
72053;SDS011;59918;51.280;7.950;2023-08-31T09:39:36;3.50;;;2.20;;
72053;SDS011;59918;51.280;7.950;2023-08-31T09:42:02;3.95;;;3.05;;
72053;SDS011;59918;51.280;7.950;2023-08-31T09:44:27;3.67;;;2.80;;
72053;SDS011;59918;51.280;7.950;2023-08-31T09:46:53;5.32;;;2.65;;
72053;SDS011;59918;51.280;7.950;2023-08-31T09:49:18;2.80;;;2.33;;
72053;SDS011;59918;51.280;7.950;2023-08-31T09:51:46;3.13;;;2.75;;
72053;SDS011;59918;51.280;7.950;2023-08-31T09:54:14;5.88;;;2.30;;
72053;SDS011;59918;51.280;7.950;2023-08-31T09:56:43;2.78;;;2.45;;
72053;SDS011;59918;51.280;7.950;2023-08-31T09:59:13;2.88;;;2.60;;
72053;SDS011;59918;51.280;7.950;2023-08-31T10:01:39;2.50;;;2.35;;
72053;SDS011;59918;51.280;7.950;2023-08-31T10:04:09;10.35;;;2.88;;
72053;SDS011;59918;51.280;7.950;2023-08-31T10:06:34;2.50;;;2.40;;
72053;SDS011;59918;51.280;7.950;2023-08-31T10:09:01;3.50;;;2.60;;
72053;SDS011;59918;51.280;7.950;2023-08-31T10:11:27;3.17;;;2.30;;
72053;SDS011;59918;51.280;7.950;2023-08-31T10:13:54;4.43;;;2.33;;
72053;SDS011;59918;51.280;7.950;2023-08-31T10:16:20;3.88;;;2.22;;
72053;SDS011;59918;51.280;7.950;2023-08-31T10:18:46;2.60;;;2.10;;
72053;SDS011;59918;51.280;7.950;2023-08-31T10:21:16;3.35;;;2.22;;
72053;SDS011;59918;51.280;7.950;2023-08-31T10:23:45;2.42;;;1.95;;
72053;SDS011;59918;51.280;7.950;2023-08-31T10:26:10;4.63;;;2.75;;
72053;SDS011;59918;51.280;7.950;2023-08-31T10:28:40;4.43;;;2.08;;
72053;SDS011;59918;51.280;7.950;2023-08-31T10:31:14;2.75;;;2.00;;
72053;SDS011;59918;51.280;7.950;2023-08-31T10:34:02;4.70;;;1.77;;
72053;SDS011;59918;51.280;7.950;2023-08-31T10:36:34;3.30;;;1.90;;
72053;SDS011;59918;51.280;7.950;2023-08-31T10:41:38;1.90;;;1.40;;
72053;SDS011;59918;51.280;7.950;2023-08-31T10:44:17;2.22;;;1.63;;
72053;SDS011;59918;51.280;7.950;2023-08-31T10:46:43;3.63;;;1.88;;
72053;SDS011;59918;51.280;7.950;2023-08-31T10:51:34;3.20;;;1.60;;
72053;SDS011;59918;51.280;7.950;2023-08-31T10:59:19;3.22;;;1.52;;
72053;SDS011;59918;51.280;7.950;2023-08-31T11:04:22;4.72;;;1.50;;
72053;SDS011;59918;51.280;7.950;2023-08-31T11:06:49;2.78;;;1.70;;
72053;SDS011;59918;51.280;7.950;2023-08-31T11:09:34;2.22;;;1.27;;
72053;SDS011;59918;51.280;7.950;2023-08-31T11:12:00;3.20;;;1.50;;
72053;SDS011;59918;51.280;7.950;2023-08-31T11:14:25;3.97;;;1.30;;
72053;SDS011;59918;51.280;7.950;2023-08-31T11:16:50;3.77;;;1.50;;
72053;SDS011;59918;51.280;7.950;2023-08-31T11:19:16;1.52;;;1.40;;
72053;SDS011;59918;51.280;7.950;2023-08-31T11:21:43;2.05;;;1.50;;
72053;SDS011;59918;51.280;7.950;2023-08-31T11:24:08;3.83;;;1.40;;
72053;SDS011;59918;51.280;7.950;2023-08-31T11:26:33;2.40;;;1.40;;
72053;SDS011;59918;51.280;7.950;2023-08-31T11:28:58;3.13;;;1.70;;
72053;SDS011;59918;51.280;7.950;2023-08-31T11:31:24;2.80;;;1.45;;
72053;SDS011;59918;51.280;7.950;2023-08-31T11:33:49;3.60;;;1.75;;
72053;SDS011;59918;51.280;7.950;2023-08-31T11:36:15;2.13;;;1.30;;
72053;SDS011;59918;51.280;7.950;2023-08-31T11:38:40;4.45;;;1.40;;
72053;SDS011;59918;51.280;7.950;2023-08-31T11:41:06;2.58;;;1.30;;
72053;SDS011;59918;51.280;7.950;2023-08-31T11:43:31;2.15;;;1.40;;
72053;SDS011;59918;51.280;7.950;2023-08-31T11:45:57;1.90;;;1.13;;
72053;SDS011;59918;51.280;7.950;2023-08-31T11:48:22;1.40;;;1.27;;
72053;SDS011;59918;51.280;7.950;2023-08-31T11:50:50;4.60;;;1.25;;
72053;SDS011;59918;51.280;7.950;2023-08-31T11:53:16;1.80;;;1.20;;
72053;SDS011;59918;51.280;7.950;2023-08-31T11:55:51;4.07;;;1.30;;
72053;SDS011;59918;51.280;7.950;2023-08-31T11:58:16;2.17;;;1.55;;
72053;SDS011;59918;51.280;7.950;2023-08-31T12:00:42;1.52;;;1.10;;
72053;SDS011;59918;51.280;7.950;2023-08-31T12:03:08;4.00;;;1.30;;
72053;SDS011;59918;51.280;7.950;2023-08-31T12:05:46;2.15;;;1.48;;
72053;SDS011;59918;51.280;7.950;2023-08-31T12:08:12;1.92;;;1.25;;
72053;SDS011;59918;51.280;7.950;2023-08-31T12:10:41;4.70;;;1.42;;
72053;SDS011;59918;51.280;7.950;2023-08-31T12:13:07;2.85;;;1.77;;
72053;SDS011;59918;51.280;7.950;2023-08-31T12:15:33;2.42;;;1.58;;
72053;SDS011;59918;51.280;7.950;2023-08-31T12:17:58;4.32;;;1.33;;
72053;SDS011;59918;51.280;7.950;2023-08-31T12:20:27;1.60;;;1.25;;
72053;SDS011;59918;51.280;7.950;2023-08-31T12:22:52;2.72;;;1.42;;
72053;SDS011;59918;51.280;7.950;2023-08-31T12:25:23;5.38;;;1.67;;
72053;SDS011;59918;51.280;7.950;2023-08-31T12:27:49;3.10;;;1.50;;
72053;SDS011;59918;51.280;7.950;2023-08-31T12:30:14;4.35;;;1.55;;
72053;SDS011;59918;51.280;7.950;2023-08-31T12:32:39;2.85;;;1.02;;
72053;SDS011;59918;51.280;7.950;2023-08-31T12:35:04;5.67;;;1.97;;
72053;SDS011;59918;51.280;7.950;2023-08-31T12:37:30;3.95;;;1.92;;
72053;SDS011;59918;51.280;7.950;2023-08-31T12:39:55;2.60;;;1.58;;
72053;SDS011;59918;51.280;7.950;2023-08-31T12:42:20;5.00;;;1.60;;
72053;SDS011;59918;51.280;7.950;2023-08-31T12:44:46;2.40;;;1.73;;
72053;SDS011;59918;51.280;7.950;2023-08-31T12:47:11;4.47;;;2.13;;
72053;SDS011;59918;51.280;7.950;2023-08-31T12:49:36;3.33;;;1.60;;
72053;SDS011;59918;51.280;7.950;2023-08-31T12:52:01;3.97;;;1.70;;
72053;SDS011;59918;51.280;7.950;2023-08-31T12:54:27;4.63;;;1.70;;
72053;SDS011;59918;51.280;7.950;2023-08-31T12:56:52;2.43;;;1.43;;
72053;SDS011;59918;51.280;7.950;2023-08-31T12:59:17;5.50;;;1.90;;
72053;SDS011;59918;51.280;7.950;2023-08-31T13:01:42;3.07;;;1.47;;
72053;SDS011;59918;51.280;7.950;2023-08-31T13:04:08;2.30;;;1.83;;
72053;SDS011;59918;51.280;7.950;2023-08-31T13:06:33;2.13;;;1.65;;
72053;SDS011;59918;51.280;7.950;2023-08-31T13:08:58;3.40;;;1.48;;
72053;SDS011;59918;51.280;7.950;2023-08-31T13:11:23;1.83;;;1.50;;
72053;SDS011;59918;51.280;7.950;2023-08-31T13:13:49;2.47;;;1.60;;
72053;SDS011;59918;51.280;7.950;2023-08-31T13:16:14;3.13;;;1.50;;
72053;SDS011;59918;51.280;7.950;2023-08-31T13:18:39;3.13;;;1.17;;
72053;SDS011;59918;51.280;7.950;2023-08-31T13:21:05;3.28;;;1.27;;
72053;SDS011;59918;51.280;7.950;2023-08-31T13:23:30;3.22;;;1.10;;
72053;SDS011;59918;51.280;7.950;2023-08-31T13:25:55;1.10;;;0.90;;
72053;SDS011;59918;51.280;7.950;2023-08-31T13:28:20;1.33;;;0.88;;
72053;SDS011;59918;51.280;7.950;2023-08-31T13:30:46;1.30;;;1.03;;
72053;SDS011;59918;51.280;7.950;2023-08-31T13:33:11;2.80;;;1.00;;
72053;SDS011;59918;51.280;7.950;2023-08-31T13:35:36;2.63;;;1.08;;
72053;SDS011;59918;51.280;7.950;2023-08-31T13:38:02;2.03;;;1.63;;
72053;SDS011;59918;51.280;7.950;2023-08-31T13:40:27;1.63;;;1.25;;
72053;SDS011;59918;51.280;7.950;2023-08-31T13:42:54;2.45;;;0.85;;
72053;SDS011;59918;51.280;7.950;2023-08-31T13:45:23;1.85;;;1.33;;
72053;SDS011;59918;51.280;7.950;2023-08-31T13:47:48;4.10;;;1.50;;
72053;SDS011;59918;51.280;7.950;2023-08-31T13:50:13;3.45;;;1.30;;
72053;SDS011;59918;51.280;7.950;2023-08-31T13:52:39;2.33;;;1.40;;
72053;SDS011;59918;51.280;7.950;2023-08-31T13:55:04;2.53;;;1.70;;
72053;SDS011;59918;51.280;7.950;2023-08-31T13:57:30;4.00;;;1.70;;
72053;SDS011;59918;51.280;7.950;2023-08-31T13:59:57;2.37;;;1.20;;
72053;SDS011;59918;51.280;7.950;2023-08-31T14:02:22;4.82;;;1.52;;
72053;SDS011;59918;51.280;7.950;2023-08-31T14:04:48;4.30;;;2.15;;
72053;SDS011;59918;51.280;7.950;2023-08-31T14:07:13;3.67;;;1.50;;
72053;SDS011;59918;51.280;7.950;2023-08-31T14:09:38;2.35;;;1.48;;
72053;SDS011;59918;51.280;7.950;2023-08-31T14:12:03;4.40;;;1.60;;
72053;SDS011;59918;51.280;7.950;2023-08-31T14:14:31;2.25;;;1.58;;
72053;SDS011;59918;51.280;7.950;2023-08-31T14:16:56;1.60;;;1.27;;
72053;SDS011;59918;51.280;7.950;2023-08-31T14:19:22;2.97;;;1.45;;
72053;SDS011;59918;51.280;7.950;2023-08-31T14:21:47;2.78;;;1.45;;
72053;SDS011;59918;51.280;7.950;2023-08-31T14:24:13;1.77;;;1.33;;
72053;SDS011;59918;51.280;7.950;2023-08-31T14:26:38;4.32;;;1.67;;
72053;SDS011;59918;51.280;7.950;2023-08-31T14:29:03;1.65;;;1.10;;
72053;SDS011;59918;51.280;7.950;2023-08-31T14:31:29;2.80;;;1.00;;
72053;SDS011;59918;51.280;7.950;2023-08-31T14:33:54;2.37;;;1.20;;
72053;SDS011;59918;51.280;7.950;2023-08-31T14:36:19;2.47;;;1.40;;
72053;SDS011;59918;51.280;7.950;2023-08-31T14:38:44;3.00;;;1.02;;
72053;SDS011;59918;51.280;7.950;2023-08-31T14:41:09;2.08;;;1.17;;
72053;SDS011;59918;51.280;7.950;2023-08-31T14:43:35;2.93;;;1.17;;
72053;SDS011;59918;51.280;7.950;2023-08-31T14:46:00;4.22;;;1.50;;
72053;SDS011;59918;51.280;7.950;2023-08-31T14:48:28;4.30;;;1.50;;
72053;SDS011;59918;51.280;7.950;2023-08-31T14:50:54;2.15;;;1.30;;
72053;SDS011;59918;51.280;7.950;2023-08-31T14:53:19;2.75;;;1.05;;
72053;SDS011;59918;51.280;7.950;2023-08-31T14:55:48;2.63;;;1.37;;